4I3

Knox County Airport

Mount Vernon, Ohio, USA
METAR K4I3 132216Z AUTO 30007KT 10SM OVC039 01/M04 A3028 RMK AO2
Observed Flight Rules
Nov-13 @ 22:16 UTC (14 minutes ago) Visual Flight Rules
Wind Visibility Clouds
300° at 7 knots 10 miles
  • Overcast at 3,900' AGL
Temperatures Readings
Current 1°C / 34°F
Dewpoint -4°C / 25°F
Humidity 70%
Altimeter 30.28" Hg
Pressure 1025 hPa
Elevation 363
METAR K4I3 132216Z AUTO 30007KT 10SM OVC039 01/M04 A3028 RMK AO2
Observed Flight Rules
Nov-13 @ 22:16 UTC
(14 minutes ago)
VFR
Wind Visibility
300° at 7 knots 10 miles
Clouds
  • Overcast at 3,900' AGL
Temperature Dewpoint
1°C / 34°F -4°C / 25°F
Humidity Altimeter Pressure
70% 30.28" Hg 1025 hPa